Castillo-santisteban — 9HA2217 — position and weather

sailwx.info

Track history (hours):
 
Tides and Currents Weather Stations Pressure Air Temp Water Temp Dewpoint Dewpoint Depression Visibility Wind Speed Wind Dir Waves Ship Positions

Castillo-santisteban

Last reported at 2017-Sep-18 09:55 UTC. Time now 2017-Sep-23 07:43 UTC.
Position N 35°57' W 025°51'.

Length 300 m; draft 9.6 m.

Type: Ship (hazmat cat A). MMSI: 215739000.

Date/timePositionNaut miles runAvg speedWind from/ knotsBaromVisibWave heightAir tempDewpointWater temp
2017-Sep-18 09:55N 35°57' W 025°51'819.2
2017-Sep-18 09:31N 35°57' W 025°42'1019.4
2017-Sep-18 09:00N 35°57' W 025°30'1019.8
2017-Sep-18 08:30N 35°57' W 025°17'1019.6
2017-Sep-18 08:01N 35°57' W 025°06'1019.5
2017-Sep-18 07:31N 35°57' W 024°54'1019.2
2017-Sep-18 07:00N 35°57' W 024°42'1019.3
2017-Sep-18 06:30N 35°57' W 024°30'1019.2
2017-Sep-18 06:01N 35°57' W 024°18'1019.4
2017-Sep-18 05:28N 35°57' W 024°05'4419.3
2017-Sep-18 03:12N 35°57' W 023°11'419.2
2017-Sep-18 03:00N 35°57' W 023°06'1819.5
2017-Sep-18 02:06N 35°57' W 022°44'219.8
2017-Sep-18 02:00N 35°57' W 022°42'83019.0
2017-Sep-16 06:17N 35°58' W 005°36'415.6
2017-Sep-16 06:00N 35°59' W 005°31'815.1
2017-Sep-16 05:30N 36°01' W 005°22'815.5
2017-Sep-16 05:00N 36°03' W 005°13'30217.4
2017-Sep-15 11:42N 37°01' E 000°56'35619.4
2017-Sep-14 17:22N 37°52' E 008°19'1419.6
2017-Sep-14 16:38N 37°55' E 008°37'319.5
2017-Sep-14 16:30N 37°56' E 008°40'919.0
2017-Sep-14 16:00N 37°57' E 008°52'1019.3
2017-Sep-14 15:30N 37°54' E 009°04'1019.4
2017-Sep-14 15:00N 37°50' E 009°15'1019.3
2017-Sep-14 14:28N 37°47' E 009°27'16319.2
2017-Sep-14 05:58N 36°51' E 012°40'918.8
2017-Sep-14 05:30N 36°49' E 012°50'918.8
2017-Sep-14 05:00N 36°47' E 013°02'918.5
2017-Sep-14 04:30N 36°44' E 013°13'918.7
2017-Sep-14 04:00N 36°41' E 013°24'918.6
2017-Sep-14 03:30N 36°39' E 013°35'918.4
2017-Sep-14 03:00N 36°37' E 013°46'918.3
2017-Sep-14 02:30N 36°35' E 013°57'918.4
2017-Sep-14 02:00N 36°32' E 014°08'1018.5
2017-Sep-14 01:28N 36°29' E 014°20'818.3
2017-Sep-14 01:00N 36°27' E 014°30'918.6
2017-Sep-14 00:30N 36°24' E 014°41'918.8
2017-Sep-14 00:00N 36°22' E 014°52'917.4
2017-Sep-13 23:30N 36°22' E 015°03'918.7
2017-Sep-13 23:00N 36°25' E 015°14'1419.3
2017-Sep-13 22:18N 36°30' E 015°30'619.0
2017-Sep-13 22:00N 36°34' E 015°35'1019.0
2017-Sep-13 21:30N 36°42' E 015°42'918.9
2017-Sep-13 21:01N 36°49' E 015°49'1519.0
2017-Sep-13 20:14N 37°01' E 016°00'419.1
2017-Sep-13 20:00N 37°04' E 016°04'1019.0
2017-Sep-13 19:30N 37°12' E 016°11'3318.6
2017-Sep-13 17:43N 37°38' E 016°37'418.5
2017-Sep-13 17:30N 37°41' E 016°40'918.3
2017-Sep-13 17:00N 37°48' E 016°47'1918.3
2017-Sep-13 15:58N 38°03' E 017°02'918.8
2017-Sep-13 15:30N 38°10' E 017°09'5519.7
2017-Sep-13 12:43N 38°53' E 017°52'418.7
2017-Sep-13 12:30N 38°56' E 017°55'35316.5
2017-Sep-12 15:06N 43°55' E 013°44'220.2
2017-Sep-12 15:00N 43°56' E 013°42'1820.4
2017-Sep-12 14:06N 44°07' E 013°21'320.1
2017-Sep-12 13:59N 44°08' E 013°18'919.3
2017-Sep-12 13:30N 44°16' E 013°11'1019.6
2017-Sep-12 13:01N 44°25' E 013°07'1019.5
2017-Sep-12 12:30N 44°34' E 013°03'1019.4
2017-Sep-12 12:01N 44°43' E 012°58'1019.2
2017-Sep-12 11:31N 44°52' E 012°51'918.5
2017-Sep-12 11:00N 45°00' E 012°47'713.9
2017-Sep-12 10:30N 45°06' E 012°41'3 6.9
2017-Sep-12 10:00N 45°06' E 012°36'1 1.7
2017-Sep-12 09:29N 45°06' E 012°35'0 0.0
2017-Sep-12 08:53N 45°06' E 012°35'0 0.0
2017-Sep-12 08:29N 45°06' E 012°35'0 0.0
2017-Sep-12 07:59N 45°06' E 012°35'0 0.0
2017-Sep-12 07:05N 45°06' E 012°35'0 0.1
2017-Sep-12 06:59N 45°06' E 012°35'0 0.0
2017-Sep-12 06:26N 45°06' E 012°35'0 0.0
2017-Sep-12 05:56N 45°06' E 012°35'0 0.0
2017-Sep-12 05:17N 45°06' E 012°35'0 0.0
2017-Sep-12 04:59N 45°06' E 012°35'0 0.0
2017-Sep-12 04:29N 45°06' E 012°35'0 0.0
2017-Sep-12 03:56N 45°06' E 012°35'0 0.0
2017-Sep-12 03:11N 45°06' E 012°35'0 0.0
2017-Sep-12 02:47N 45°06' E 012°35'0 0.0
2017-Sep-12 02:23N 45°06' E 012°35'0 0.0
2017-Sep-12 01:53N 45°06' E 012°35'0 0.0
2017-Sep-12 01:17N 45°06' E 012°35'0 0.0
2017-Sep-12 00:59N 45°06' E 012°35'0 0.0
2017-Sep-12 00:29N 45°06' E 012°35'0 0.0
2017-Sep-11 23:53N 45°06' E 012°35'0 0.0
2017-Sep-11 23:29N 45°06' E 012°35'0 0.0
2017-Sep-11 22:53N 45°06' E 012°35'0 0.0
2017-Sep-11 22:23N 45°06' E 012°35'0 0.0
2017-Sep-11 21:59N 45°06' E 012°35'0 0.0
2017-Sep-11 21:08N 45°06' E 012°35'0 0.0
2017-Sep-11 20:53N 45°06' E 012°35'0 0.0
2017-Sep-11 20:29N 45°06' E 012°35'0 0.0
2017-Sep-11 19:56N 45°06' E 012°35'0 0.0
2017-Sep-11 19:11N 45°06' E 012°35'0 0.0
2017-Sep-11 18:56N 45°06' E 012°35'0 0.0
2017-Sep-11 18:17N 45°06' E 012°35'0 0.0
2017-Sep-11 17:59N 45°06' E 012°35'0 0.0
2017-Sep-11 17:23N 45°06' E 012°35'0 0.0
2017-Sep-11 16:50N 45°06' E 012°35'0 0.0
2017-Sep-11 16:26N 45°06' E 012°35'0 0.0
2017-Sep-11 15:59N 45°06' E 012°35'0 0.0
2017-Sep-11 15:26N 45°06' E 012°35'0 0.0
2017-Sep-11 14:59N 45°06' E 012°35'0 0.0
2017-Sep-11 14:23N 45°06' E 012°35'0 0.0
2017-Sep-11 13:59N 45°06' E 012°35'0 0.0
2017-Sep-11 13:26N 45°06' E 012°35'0 0.0
2017-Sep-11 12:56N 45°06' E 012°35'0 0.0
2017-Sep-11 12:26N 45°06' E 012°35'0 0.0
2017-Sep-11 11:56N 45°06' E 012°35'0 0.0
2017-Sep-11 11:29N 45°06' E 012°35'0 0.0
2017-Sep-11 10:38N 45°06' E 012°35'0 0.0
2017-Sep-11 10:28N 45°06' E 012°35'0 0.1
2017-Sep-11 09:59N 45°06' E 012°35'1 1.4
2017-Sep-11 09:17N 45°06' E 012°34'1 3.4
2017-Sep-11 09:00N 45°06' E 012°33'2 4.6
2017-Sep-11 08:30N 45°08' E 012°30'3 6.5
2017-Sep-11 08:00N 45°09' E 012°26'0 0.8
2017-Sep-11 07:28N 45°10' E 012°25'0 0.2
2017-Sep-11 06:56N 45°10' E 012°26'0 0.1
2017-Sep-11 06:29N 45°09' E 012°26'0 0.1
2017-Sep-11 05:44N 45°09' E 012°26'0 0.2
2017-Sep-11 05:08N 45°10' E 012°26'0 0.0
2017-Sep-11 04:56N 45°10' E 012°26'0 0.1
2017-Sep-11 04:29N 45°10' E 012°26'0 0.1
2017-Sep-11 03:56N 45°10' E 012°26'0 0.0
2017-Sep-11 03:29N 45°10' E 012°26'0 0.1
2017-Sep-11 02:59N 45°10' E 012°26'0 0.1
2017-Sep-11 02:29N 45°10' E 012°26'0 0.0
2017-Sep-11 01:59N 45°10' E 012°26'0 0.0
2017-Sep-11 01:23N 45°10' E 012°26'0 0.0
2017-Sep-11 00:59N 45°10' E 012°26'0 0.2
2017-Sep-11 00:29N 45°10' E 012°26'0 0.0
2017-Sep-10 23:59N 45°10' E 012°26'0 0.0
2017-Sep-10 23:29N 45°10' E 012°26'0 0.0
2017-Sep-10 22:59N 45°10' E 012°26'0 0.0
2017-Sep-10 22:26N 45°10' E 012°26'0 0.1
2017-Sep-10 21:59N 45°10' E 012°26'0 0.1
2017-Sep-10 21:23N 45°09' E 012°26'0 0.0
2017-Sep-10 20:59N 45°09' E 012°26'0 0.0
2017-Sep-10 20:26N 45°09' E 012°26'0 0.0
2017-Sep-10 19:59N 45°09' E 012°26'0 0.0
2017-Sep-10 19:29N 45°09' E 012°26'0 0.1
2017-Sep-10 18:59N 45°10' E 012°26'0 0.0
2017-Sep-10 18:26N 45°09' E 012°26'0 0.3
2017-Sep-10 17:59N 45°10' E 012°25'0 0.1
2017-Sep-10 17:29N 45°10' E 012°26'0 0.0
2017-Sep-10 16:59N 45°10' E 012°26'0 0.1
2017-Sep-10 16:29N 45°10' E 012°26'0 0.0
2017-Sep-10 15:59N 45°10' E 012°26'0 0.1
2017-Sep-10 15:26N 45°10' E 012°26'0 0.1
2017-Sep-10 14:59N 45°10' E 012°26'0 0.1
2017-Sep-10 13:59N 45°10' E 012°26'0 0.0
2017-Sep-10 13:29N 45°10' E 012°26'0 0.1
2017-Sep-10 12:56N 45°10' E 012°26'0 0.0
2017-Sep-10 12:23N 45°10' E 012°26'0 0.1
2017-Sep-10 11:56N 45°10' E 012°26'0 0.1
2017-Sep-10 11:26N 45°10' E 012°25'0 0.1
2017-Sep-10 10:59N 45°10' E 012°25'0 0.0
2017-Sep-10 10:29N 45°10' E 012°25'0 0.0
2017-Sep-10 09:59N 45°10' E 012°26'0 0.0
2017-Sep-10 09:29N 45°10' E 012°25'0 0.0
2017-Sep-10 08:59N 45°10' E 012°25'0 0.0
2017-Sep-10 08:29N 45°10' E 012°25'0 0.1
2017-Sep-10 07:56N 45°10' E 012°26'0 0.2
2017-Sep-10 07:29N 45°10' E 012°26'0 0.2
2017-Sep-10 06:59N 45°10' E 012°26'0 0.0
2017-Sep-10 06:29N 45°10' E 012°26'0 0.2
2017-Sep-10 05:59N 45°10' E 012°26'0 0.2
2017-Sep-10 05:29N 45°10' E 012°26'0 0.0
2017-Sep-10 04:59N 45°10' E 012°26'0 0.0
2017-Sep-10 04:23N 45°10' E 012°26'0 0.2
2017-Sep-10 03:56N 45°10' E 012°26'0 0.2
2017-Sep-10 03:29N 45°10' E 012°25'0 0.2
2017-Sep-10 02:59N 45°10' E 012°26'0 0.2
2017-Sep-10 02:26N 45°09' E 012°26'0 0.1
2017-Sep-10 01:59N 45°09' E 012°26'0 0.0
2017-Sep-10 01:29N 45°09' E 012°26'0 0.0
2017-Sep-10 00:53N 45°09' E 012°26'0 0.0
2017-Sep-10 00:29N 45°09' E 012°26'0 0.0
2017-Sep-09 23:56N 45°09' E 012°26'0 0.0
2017-Sep-09 23:29N 45°09' E 012°26'0 0.1
2017-Sep-09 22:59N 45°09' E 012°26'0 0.0
2017-Sep-09 22:26N 45°10' E 012°26'0 0.1
2017-Sep-09 21:59N 45°10' E 012°26'0 0.0
2017-Sep-09 21:29N 45°10' E 012°26'0 0.5
2017-Sep-09 20:59N 45°10' E 012°26'0 0.1
2017-Sep-09 20:29N 45°10' E 012°26'0 0.0
2017-Sep-09 19:47N 45°10' E 012°26'0 0.1
2017-Sep-09 19:20N 45°10' E 012°26'0 0.0
2017-Sep-09 18:53N 45°10' E 012°26'0 0.1
2017-Sep-09 18:29N 45°10' E 012°26'0 0.0
2017-Sep-09 17:56N 45°10' E 012°26'0 0.0
2017-Sep-09 17:26N 45°10' E 012°26'0 0.1
2017-Sep-09 16:56N 45°10' E 012°26'0 0.2
2017-Sep-09 16:29N 45°10' E 012°26'0 0.2
2017-Sep-09 15:59N 45°10' E 012°26'0 0.2
2017-Sep-09 15:26N 45°09' E 012°26'0 0.0
2017-Sep-09 14:59N 45°09' E 012°26'0 0.0
2017-Sep-09 14:23N 45°09' E 012°26'0 0.1
2017-Sep-09 13:59N 45°09' E 012°26'0 0.1
2017-Sep-09 13:29N 45°09' E 012°26'0 0.1
2017-Sep-09 12:53N 45°09' E 012°26'0 0.0
2017-Sep-09 12:26N 45°09' E 012°26'0 0.0
2017-Sep-09 11:59N 45°09' E 012°26'0 0.1
2017-Sep-09 11:29N 45°09' E 012°26'0 0.0
2017-Sep-09 10:56N 45°09' E 012°26'0 0.1
2017-Sep-09 10:26N 45°09' E 012°26'0 0.0
2017-Sep-09 09:59N 45°10' E 012°26'0 0.1
2017-Sep-09 09:29N 45°09' E 012°26'0 0.1
2017-Sep-09 08:59N 45°09' E 012°26'0 0.2
2017-Sep-09 08:29N 45°09' E 012°26'0 0.2
2017-Sep-09 07:59N 45°10' E 012°26'0 0.1
2017-Sep-09 07:29N 45°10' E 012°26'0 0.3
2017-Sep-09 06:59N 45°09' E 012°26'0 0.1
2017-Sep-09 06:29N 45°09' E 012°26'0 0.0
2017-Sep-09 05:59N 45°09' E 012°26'0 0.0
2017-Sep-09 05:29N 45°09' E 012°26'0 0.0
2017-Sep-09 04:59N 45°09' E 012°26'0 0.0
2017-Sep-09 04:29N 45°09' E 012°26'0 0.0
2017-Sep-09 03:59N 45°09' E 012°26'0 0.0
2017-Sep-09 03:29N 45°09' E 012°26'0 0.0
2017-Sep-09 02:59N 45°09' E 012°26'0 0.0
2017-Sep-09 02:29N 45°09' E 012°26'0 0.0
2017-Sep-09 01:59N 45°09' E 012°26'0 0.0
2017-Sep-09 01:29N 45°09' E 012°26'0 0.0
2017-Sep-09 00:53N 45°09' E 012°26'0 0.0
2017-Sep-09 00:20N 45°09' E 012°26'0 0.0
2017-Sep-08 23:59N 45°09' E 012°26'0 0.0
2017-Sep-08 23:17N 45°09' E 012°26'0 0.0
2017-Sep-08 22:59N 45°09' E 012°26'0 0.0
2017-Sep-08 22:29N 45°09' E 012°26'0 0.1
2017-Sep-08 21:59N 45°09' E 012°26'0 0.0
2017-Sep-08 21:23N 45°09' E 012°26'0 0.0
2017-Sep-08 20:59N 45°09' E 012°26'0 0.1
2017-Sep-08 20:23N 45°09' E 012°26'0 0.2
2017-Sep-08 19:59N 45°09' E 012°26'0 0.0
2017-Sep-08 19:29N 45°09' E 012°26'0 0.1
2017-Sep-08 18:59N 45°09' E 012°26'0 0.1
2017-Sep-08 18:29N 45°09' E 012°26'0 0.0
2017-Sep-08 17:56N 45°09' E 012°26'0 0.0
2017-Sep-08 17:29N 45°09' E 012°26'0 0.0
2017-Sep-08 16:59N 45°09' E 012°26'0 0.0
2017-Sep-08 16:26N 45°09' E 012°26'0 0.0
2017-Sep-08 15:59N 45°09' E 012°26'0 0.0
2017-Sep-08 15:29N 45°09' E 012°26'0 0.0
2017-Sep-08 14:59N 45°09' E 012°26'0 0.0
2017-Sep-08 14:28N 45°09' E 012°26'0 0.0
2017-Sep-08 13:47N 45°09' E 012°26'0 0.0
2017-Sep-08 13:26N 45°09' E 012°26'0 0.0
2017-Sep-08 12:59N 45°09' E 012°26'0 0.0
2017-Sep-08 12:29N 45°09' E 012°26'0 0.0
2017-Sep-08 11:59N 45°09' E 012°26'0 0.0
2017-Sep-08 11:29N 45°09' E 012°26'0 0.0
2017-Sep-08 10:59N 45°09' E 012°26'0 0.0
2017-Sep-08 10:29N 45°09' E 012°26'0 0.0
2017-Sep-08 09:59N 45°09' E 012°26'  
Track history (hours):
 
Tides and Currents Weather Stations Pressure Air Temp Water Temp Dewpoint Dewpoint Depression Visibility Wind Speed Wind Dir Waves Ship Positions

Castillo-santisteban

Last reported at 2017-Sep-18 09:55 UTC. Time now 2017-Sep-23 07:43 UTC.
Position N 35°57' W 025°51'.

Length 300 m; draft 9.6 m.

Type: Ship (hazmat cat A). MMSI: 215739000.

Date/timePositionNaut miles runAvg speedWind from/ knotsBaromVisibWave heightAir tempDewpointWater temp
2017-Sep-18 09:55N 35°57' W 025°51'819.2
2017-Sep-18 09:31N 35°57' W 025°42'1019.4
2017-Sep-18 09:00N 35°57' W 025°30'1019.8
2017-Sep-18 08:30N 35°57' W 025°17'1019.6
2017-Sep-18 08:01N 35°57' W 025°06'1019.5
2017-Sep-18 07:31N 35°57' W 024°54'1019.2
2017-Sep-18 07:00N 35°57' W 024°42'1019.3
2017-Sep-18 06:30N 35°57' W 024°30'1019.2
2017-Sep-18 06:01N 35°57' W 024°18'1019.4
2017-Sep-18 05:28N 35°57' W 024°05'4419.3
2017-Sep-18 03:12N 35°57' W 023°11'419.2
2017-Sep-18 03:00N 35°57' W 023°06'1819.5
2017-Sep-18 02:06N 35°57' W 022°44'219.8
2017-Sep-18 02:00N 35°57' W 022°42'83019.0
2017-Sep-16 06:17N 35°58' W 005°36'415.6
2017-Sep-16 06:00N 35°59' W 005°31'815.1
2017-Sep-16 05:30N 36°01' W 005°22'815.5
2017-Sep-16 05:00N 36°03' W 005°13'30217.4
2017-Sep-15 11:42N 37°01' E 000°56'35619.4
2017-Sep-14 17:22N 37°52' E 008°19'1419.6
2017-Sep-14 16:38N 37°55' E 008°37'319.5
2017-Sep-14 16:30N 37°56' E 008°40'919.0
2017-Sep-14 16:00N 37°57' E 008°52'1019.3
2017-Sep-14 15:30N 37°54' E 009°04'1019.4
2017-Sep-14 15:00N 37°50' E 009°15'1019.3
2017-Sep-14 14:28N 37°47' E 009°27'16319.2
2017-Sep-14 05:58N 36°51' E 012°40'918.8
2017-Sep-14 05:30N 36°49' E 012°50'918.8
2017-Sep-14 05:00N 36°47' E 013°02'918.5
2017-Sep-14 04:30N 36°44' E 013°13'918.7
2017-Sep-14 04:00N 36°41' E 013°24'918.6
2017-Sep-14 03:30N 36°39' E 013°35'918.4
2017-Sep-14 03:00N 36°37' E 013°46'918.3
2017-Sep-14 02:30N 36°35' E 013°57'918.4
2017-Sep-14 02:00N 36°32' E 014°08'1018.5
2017-Sep-14 01:28N 36°29' E 014°20'818.3
2017-Sep-14 01:00N 36°27' E 014°30'918.6
2017-Sep-14 00:30N 36°24' E 014°41'918.8
2017-Sep-14 00:00N 36°22' E 014°52'917.4
2017-Sep-13 23:30N 36°22' E 015°03'918.7
2017-Sep-13 23:00N 36°25' E 015°14'1419.3
2017-Sep-13 22:18N 36°30' E 015°30'619.0
2017-Sep-13 22:00N 36°34' E 015°35'1019.0
2017-Sep-13 21:30N 36°42' E 015°42'918.9
2017-Sep-13 21:01N 36°49' E 015°49'1519.0
2017-Sep-13 20:14N 37°01' E 016°00'419.1
2017-Sep-13 20:00N 37°04' E 016°04'1019.0
2017-Sep-13 19:30N 37°12' E 016°11'3318.6
2017-Sep-13 17:43N 37°38' E 016°37'418.5
2017-Sep-13 17:30N 37°41' E 016°40'918.3
2017-Sep-13 17:00N 37°48' E 016°47'1918.3
2017-Sep-13 15:58N 38°03' E 017°02'918.8
2017-Sep-13 15:30N 38°10' E 017°09'5519.7
2017-Sep-13 12:43N 38°53' E 017°52'418.7
2017-Sep-13 12:30N 38°56' E 017°55'35316.5
2017-Sep-12 15:06N 43°55' E 013°44'220.2
2017-Sep-12 15:00N 43°56' E 013°42'1820.4
2017-Sep-12 14:06N 44°07' E 013°21'320.1
2017-Sep-12 13:59N 44°08' E 013°18'919.3
2017-Sep-12 13:30N 44°16' E 013°11'1019.6
2017-Sep-12 13:01N 44°25' E 013°07'1019.5
2017-Sep-12 12:30N 44°34' E 013°03'1019.4
2017-Sep-12 12:01N 44°43' E 012°58'1019.2
2017-Sep-12 11:31N 44°52' E 012°51'918.5
2017-Sep-12 11:00N 45°00' E 012°47'713.9
2017-Sep-12 10:30N 45°06' E 012°41'3 6.9
2017-Sep-12 10:00N 45°06' E 012°36'1 1.7
2017-Sep-12 09:29N 45°06' E 012°35'0 0.0
2017-Sep-12 08:53N 45°06' E 012°35'0 0.0
2017-Sep-12 08:29N 45°06' E 012°35'0 0.0
2017-Sep-12 07:59N 45°06' E 012°35'0 0.0
2017-Sep-12 07:05N 45°06' E 012°35'0 0.1
2017-Sep-12 06:59N 45°06' E 012°35'0 0.0
2017-Sep-12 06:26N 45°06' E 012°35'0 0.0
2017-Sep-12 05:56N 45°06' E 012°35'0 0.0
2017-Sep-12 05:17N 45°06' E 012°35'0 0.0
2017-Sep-12 04:59N 45°06' E 012°35'0 0.0
2017-Sep-12 04:29N 45°06' E 012°35'0 0.0
2017-Sep-12 03:56N 45°06' E 012°35'0 0.0
2017-Sep-12 03:11N 45°06' E 012°35'0 0.0
2017-Sep-12 02:47N 45°06' E 012°35'0 0.0
2017-Sep-12 02:23N 45°06' E 012°35'0 0.0
2017-Sep-12 01:53N 45°06' E 012°35'0 0.0
2017-Sep-12 01:17N 45°06' E 012°35'0 0.0
2017-Sep-12 00:59N 45°06' E 012°35'0 0.0
2017-Sep-12 00:29N 45°06' E 012°35'0 0.0
2017-Sep-11 23:53N 45°06' E 012°35'0 0.0
2017-Sep-11 23:29N 45°06' E 012°35'0 0.0
2017-Sep-11 22:53N 45°06' E 012°35'0 0.0
2017-Sep-11 22:23N 45°06' E 012°35'0 0.0
2017-Sep-11 21:59N 45°06' E 012°35'0 0.0
2017-Sep-11 21:08N 45°06' E 012°35'0 0.0
2017-Sep-11 20:53N 45°06' E 012°35'0 0.0
2017-Sep-11 20:29N 45°06' E 012°35'0 0.0
2017-Sep-11 19:56N 45°06' E 012°35'0 0.0
2017-Sep-11 19:11N 45°06' E 012°35'0 0.0
2017-Sep-11 18:56N 45°06' E 012°35'0 0.0
2017-Sep-11 18:17N 45°06' E 012°35'0 0.0
2017-Sep-11 17:59N 45°06' E 012°35'0 0.0
2017-Sep-11 17:23N 45°06' E 012°35'0 0.0
2017-Sep-11 16:50N 45°06' E 012°35'0 0.0
2017-Sep-11 16:26N 45°06' E 012°35'0 0.0
2017-Sep-11 15:59N 45°06' E 012°35'0 0.0
2017-Sep-11 15:26N 45°06' E 012°35'0 0.0
2017-Sep-11 14:59N 45°06' E 012°35'0 0.0
2017-Sep-11 14:23N 45°06' E 012°35'0 0.0
2017-Sep-11 13:59N 45°06' E 012°35'0 0.0
2017-Sep-11 13:26N 45°06' E 012°35'0 0.0
2017-Sep-11 12:56N 45°06' E 012°35'0 0.0
2017-Sep-11 12:26N 45°06' E 012°35'0 0.0
2017-Sep-11 11:56N 45°06' E 012°35'0 0.0
2017-Sep-11 11:29N 45°06' E 012°35'0 0.0
2017-Sep-11 10:38N 45°06' E 012°35'0 0.0
2017-Sep-11 10:28N 45°06' E 012°35'0 0.1
2017-Sep-11 09:59N 45°06' E 012°35'1 1.4
2017-Sep-11 09:17N 45°06' E 012°34'1 3.4
2017-Sep-11 09:00N 45°06' E 012°33'2 4.6
2017-Sep-11 08:30N 45°08' E 012°30'3 6.5
2017-Sep-11 08:00N 45°09' E 012°26'0 0.8
2017-Sep-11 07:28N 45°10' E 012°25'0 0.2
2017-Sep-11 06:56N 45°10' E 012°26'0 0.1
2017-Sep-11 06:29N 45°09' E 012°26'0 0.1
2017-Sep-11 05:44N 45°09' E 012°26'0 0.2
2017-Sep-11 05:08N 45°10' E 012°26'0 0.0
2017-Sep-11 04:56N 45°10' E 012°26'0 0.1
2017-Sep-11 04:29N 45°10' E 012°26'0 0.1
2017-Sep-11 03:56N 45°10' E 012°26'0 0.0
2017-Sep-11 03:29N 45°10' E 012°26'0 0.1
2017-Sep-11 02:59N 45°10' E 012°26'0 0.1
2017-Sep-11 02:29N 45°10' E 012°26'0 0.0
2017-Sep-11 01:59N 45°10' E 012°26'0 0.0
2017-Sep-11 01:23N 45°10' E 012°26'0 0.0
2017-Sep-11 00:59N 45°10' E 012°26'0 0.2
2017-Sep-11 00:29N 45°10' E 012°26'0 0.0
2017-Sep-10 23:59N 45°10' E 012°26'0 0.0
2017-Sep-10 23:29N 45°10' E 012°26'0 0.0
2017-Sep-10 22:59N 45°10' E 012°26'0 0.0
2017-Sep-10 22:26N 45°10' E 012°26'0 0.1
2017-Sep-10 21:59N 45°10' E 012°26'0 0.1
2017-Sep-10 21:23N 45°09' E 012°26'0 0.0
2017-Sep-10 20:59N 45°09' E 012°26'0 0.0
2017-Sep-10 20:26N 45°09' E 012°26'0 0.0
2017-Sep-10 19:59N 45°09' E 012°26'0 0.0
2017-Sep-10 19:29N 45°09' E 012°26'0 0.1
2017-Sep-10 18:59N 45°10' E 012°26'0 0.0
2017-Sep-10 18:26N 45°09' E 012°26'0 0.3
2017-Sep-10 17:59N 45°10' E 012°25'0 0.1
2017-Sep-10 17:29N 45°10' E 012°26'0 0.0
2017-Sep-10 16:59N 45°10' E 012°26'0 0.1
2017-Sep-10 16:29N 45°10' E 012°26'0 0.0
2017-Sep-10 15:59N 45°10' E 012°26'0 0.1
2017-Sep-10 15:26N 45°10' E 012°26'0 0.1
2017-Sep-10 14:59N 45°10' E 012°26'0 0.1
2017-Sep-10 13:59N 45°10' E 012°26'0 0.0
2017-Sep-10 13:29N 45°10' E 012°26'0 0.1
2017-Sep-10 12:56N 45°10' E 012°26'0 0.0
2017-Sep-10 12:23N 45°10' E 012°26'0 0.1
2017-Sep-10 11:56N 45°10' E 012°26'0 0.1
2017-Sep-10 11:26N 45°10' E 012°25'0 0.1
2017-Sep-10 10:59N 45°10' E 012°25'0 0.0
2017-Sep-10 10:29N 45°10' E 012°25'0 0.0
2017-Sep-10 09:59N 45°10' E 012°26'0 0.0
2017-Sep-10 09:29N 45°10' E 012°25'0 0.0
2017-Sep-10 08:59N 45°10' E 012°25'0 0.0
2017-Sep-10 08:29N 45°10' E 012°25'0 0.1
2017-Sep-10 07:56N 45°10' E 012°26'0 0.2
2017-Sep-10 07:29N 45°10' E 012°26'0 0.2
2017-Sep-10 06:59N 45°10' E 012°26'0 0.0
2017-Sep-10 06:29N 45°10' E 012°26'0 0.2
2017-Sep-10 05:59N 45°10' E 012°26'0 0.2
2017-Sep-10 05:29N 45°10' E 012°26'0 0.0
2017-Sep-10 04:59N 45°10' E 012°26'0 0.0
2017-Sep-10 04:23N 45°10' E 012°26'0 0.2
2017-Sep-10 03:56N 45°10' E 012°26'0 0.2
2017-Sep-10 03:29N 45°10' E 012°25'0 0.2
2017-Sep-10 02:59N 45°10' E 012°26'0 0.2
2017-Sep-10 02:26N 45°09' E 012°26'0 0.1
2017-Sep-10 01:59N 45°09' E 012°26'0 0.0
2017-Sep-10 01:29N 45°09' E 012°26'0 0.0
2017-Sep-10 00:53N 45°09' E 012°26'0 0.0
2017-Sep-10 00:29N 45°09' E 012°26'0 0.0
2017-Sep-09 23:56N 45°09' E 012°26'0 0.0
2017-Sep-09 23:29N 45°09' E 012°26'0 0.1
2017-Sep-09 22:59N 45°09' E 012°26'0 0.0
2017-Sep-09 22:26N 45°10' E 012°26'0 0.1
2017-Sep-09 21:59N 45°10' E 012°26'0 0.0
2017-Sep-09 21:29N 45°10' E 012°26'0 0.5
2017-Sep-09 20:59N 45°10' E 012°26'0 0.1
2017-Sep-09 20:29N 45°10' E 012°26'0 0.0
2017-Sep-09 19:47N 45°10' E 012°26'0 0.1
2017-Sep-09 19:20N 45°10' E 012°26'0 0.0
2017-Sep-09 18:53N 45°10' E 012°26'0 0.1
2017-Sep-09 18:29N 45°10' E 012°26'0 0.0
2017-Sep-09 17:56N 45°10' E 012°26'0 0.0
2017-Sep-09 17:26N 45°10' E 012°26'0 0.1
2017-Sep-09 16:56N 45°10' E 012°26'0 0.2
2017-Sep-09 16:29N 45°10' E 012°26'0 0.2
2017-Sep-09 15:59N 45°10' E 012°26'0 0.2
2017-Sep-09 15:26N 45°09' E 012°26'0 0.0
2017-Sep-09 14:59N 45°09' E 012°26'0 0.0
2017-Sep-09 14:23N 45°09' E 012°26'0 0.1
2017-Sep-09 13:59N 45°09' E 012°26'0 0.1
2017-Sep-09 13:29N 45°09' E 012°26'0 0.1
2017-Sep-09 12:53N 45°09' E 012°26'0 0.0
2017-Sep-09 12:26N 45°09' E 012°26'0 0.0
2017-Sep-09 11:59N 45°09' E 012°26'0 0.1
2017-Sep-09 11:29N 45°09' E 012°26'0 0.0
2017-Sep-09 10:56N 45°09' E 012°26'0 0.1
2017-Sep-09 10:26N 45°09' E 012°26'0 0.0
2017-Sep-09 09:59N 45°10' E 012°26'0 0.1
2017-Sep-09 09:29N 45°09' E 012°26'0 0.1
2017-Sep-09 08:59N 45°09' E 012°26'0 0.2
2017-Sep-09 08:29N 45°09' E 012°26'0 0.2
2017-Sep-09 07:59N 45°10' E 012°26'0 0.1
2017-Sep-09 07:29N 45°10' E 012°26'0 0.3
2017-Sep-09 06:59N 45°09' E 012°26'0 0.1
2017-Sep-09 06:29N 45°09' E 012°26'0 0.0
2017-Sep-09 05:59N 45°09' E 012°26'0 0.0
2017-Sep-09 05:29N 45°09' E 012°26'0 0.0
2017-Sep-09 04:59N 45°09' E 012°26'0 0.0
2017-Sep-09 04:29N 45°09' E 012°26'0 0.0
2017-Sep-09 03:59N 45°09' E 012°26'0 0.0
2017-Sep-09 03:29N 45°09' E 012°26'0 0.0
2017-Sep-09 02:59N 45°09' E 012°26'0 0.0
2017-Sep-09 02:29N 45°09' E 012°26'0 0.0
2017-Sep-09 01:59N 45°09' E 012°26'0 0.0
2017-Sep-09 01:29N 45°09' E 012°26'0 0.0
2017-Sep-09 00:53N 45°09' E 012°26'0 0.0
2017-Sep-09 00:20N 45°09' E 012°26'0 0.0
2017-Sep-08 23:59N 45°09' E 012°26'0 0.0
2017-Sep-08 23:17N 45°09' E 012°26'0 0.0
2017-Sep-08 22:59N 45°09' E 012°26'0 0.0
2017-Sep-08 22:29N 45°09' E 012°26'0 0.1
2017-Sep-08 21:59N 45°09' E 012°26'0 0.0
2017-Sep-08 21:23N 45°09' E 012°26'0 0.0
2017-Sep-08 20:59N 45°09' E 012°26'0 0.1
2017-Sep-08 20:23N 45°09' E 012°26'0 0.2
2017-Sep-08 19:59N 45°09' E 012°26'0 0.0
2017-Sep-08 19:29N 45°09' E 012°26'0 0.1
2017-Sep-08 18:59N 45°09' E 012°26'0 0.1
2017-Sep-08 18:29N 45°09' E 012°26'0 0.0
2017-Sep-08 17:56N 45°09' E 012°26'0 0.0
2017-Sep-08 17:29N 45°09' E 012°26'0 0.0
2017-Sep-08 16:59N 45°09' E 012°26'0 0.0
2017-Sep-08 16:26N 45°09' E 012°26'0 0.0
2017-Sep-08 15:59N 45°09' E 012°26'0 0.0
2017-Sep-08 15:29N 45°09' E 012°26'0 0.0
2017-Sep-08 14:59N 45°09' E 012°26'0 0.0
2017-Sep-08 14:28N 45°09' E 012°26'0 0.0
2017-Sep-08 13:47N 45°09' E 012°26'0 0.0
2017-Sep-08 13:26N 45°09' E 012°26'0 0.0
2017-Sep-08 12:59N 45°09' E 012°26'0 0.0
2017-Sep-08 12:29N 45°09' E 012°26'0 0.0
2017-Sep-08 11:59N 45°09' E 012°26'0 0.0
2017-Sep-08 11:29N 45°09' E 012°26'0 0.0
2017-Sep-08 10:59N 45°09' E 012°26'0 0.0
2017-Sep-08 10:29N 45°09' E 012°26'0 0.0
2017-Sep-08 09:59N 45°09' E 012°26'  

Dump ship's entire track history